Time;durP1;ratioP1;P1;durP2;ratioP2;P2;SDS_P1;SDS_P2;PMS_P1;PMS_P2;Temp;Humidity;BMP_temperature;BMP_pressure;BME280_temperature;BME280_humidity;BME280_pressure;Samples;Min_cycle;Max_cycle;Signal;HPM_P1;HPM_P2
2021/03/04 00:00:10;;;;;;;39.67;21.10;;;;;;;4.31;66.72;101753.50;5053831;28;20456;-69
2021/03/04 00:02:38;;;;;;;37.17;21.10;;;;;;;4.30;66.50;101754.25;5054162;28;20059;-68
2021/03/04 00:05:06;;;;;;;40.00;20.53;;;;;;;4.34;65.86;101730.72;5054214;28;20055;-70
2021/03/04 00:07:32;;;;;;;36.13;20.43;;;;;;;4.27;65.47;101725.88;5052171;28;20033;-70
2021/03/04 00:09:57;;;;;;;37.50;20.90;;;;;;;4.40;65.94;101752.44;5068007;28;20461;-70
2021/03/04 00:12:23;;;;;;;45.37;25.20;;;;;;;4.46;66.06;101746.19;5058103;28;20087;-66
2021/03/04 00:14:48;;;;;;;50.20;29.23;;;;;;;4.59;65.27;101742.97;5034258;28;20081;-69
2021/03/04 00:17:15;;;;;;;41.07;20.23;;;;;;;4.68;65.19;101743.69;5062061;28;20090;-67
2021/03/04 00:19:40;;;;;;;37.90;20.37;;;;;;;4.75;64.04;101739.09;5067921;28;20043;-70
2021/03/04 00:22:06;;;;;;;33.57;20.60;;;;;;;4.75;64.30;101733.97;5063640;28;20053;-70
2021/03/04 00:24:31;;;;;;;35.63;19.77;;;;;;;4.76;63.72;101729.00;5069708;28;20032;-67
2021/03/04 00:26:57;;;;;;;101.10;41.83;;;;;;;4.60;64.56;101715.72;5070600;28;20024;-66
2021/03/04 00:29:23;;;;;;;36.77;20.53;;;;;;;4.72;65.20;101743.97;5059752;28;20115;-69
2021/03/04 00:31:48;;;;;;;39.42;20.30;;;;;;;4.72;64.70;101737.19;5059876;28;20025;-67
2021/03/04 00:34:13;;;;;;;38.57;21.87;;;;;;;4.64;65.00;101730.56;5037410;28;20044;-69
2021/03/04 00:36:39;;;;;;;43.47;22.50;;;;;;;4.53;64.70;101705.00;5065642;28;20056;-68
2021/03/04 00:39:07;;;;;;;46.57;25.03;;;;;;;4.43;64.84;101692.22;5061829;28;20435;-67
2021/03/04 00:41:33;;;;;;;40.80;22.37;;;;;;;4.56;65.26;101722.28;5069956;28;20400;-67
2021/03/04 00:43:58;;;;;;;45.50;22.47;;;;;;;4.56;65.02;101722.28;5071134;28;20036;-69
2021/03/04 00:46:24;;;;;;;40.57;23.00;;;;;;;4.49;65.18;101722.53;5068648;28;20029;-66
2021/03/04 00:48:49;;;;;;;40.57;22.33;;;;;;;4.44;65.50;101709.38;5053573;28;20041;-70
2021/03/04 00:51:15;;;;;;;39.23;21.77;;;;;;;4.49;65.34;101709.75;5053255;28;20040;-67
2021/03/04 00:53:40;;;;;;;37.70;19.47;;;;;;;4.41;65.44;101711.69;5053135;28;20033;-70
2021/03/04 00:56:06;;;;;;;41.93;23.20;;;;;;;3.94;66.33;101699.31;5052058;28;20031;-68
2021/03/04 00:58:31;;;;;;;42.13;21.30;;;;;;;3.87;67.26;101707.22;5039277;28;20167;-65
2021/03/04 01:00:57;;;;;;;37.90;20.43;;;;;;;3.52;67.41;101656.63;5051932;28;20086;-69
2021/03/04 01:03:22;;;;;;;44.00;22.43;;;;;;;3.49;68.41;101697.22;5052790;28;20075;-66
2021/03/04 01:05:48;;;;;;;47.23;24.50;;;;;;;3.50;68.42;101699.91;5053109;28;20021;-66
2021/03/04 01:08:13;;;;;;;39.23;21.37;;;;;;;3.40;68.35;101690.56;5053224;28;20099;-70
2021/03/04 01:10:41;;;;;;;46.17;24.27;;;;;;;3.19;68.25;101670.84;5040745;28;20024;-70
2021/03/04 01:13:07;;;;;;;41.43;21.13;;;;;;;2.84;70.37;101704.41;5052857;28;20102;-66
2021/03/04 01:15:33;;;;;;;37.80;19.60;;;;;;;2.50;71.58;101684.47;5052661;28;20025;-65
2021/03/04 01:18:00;;;;;;;44.33;20.70;;;;;;;2.73;70.75;101685.63;5053143;28;20029;-69
2021/03/04 01:20:26;;;;;;;40.77;22.20;;;;;;;2.53;71.00;101674.56;5052700;28;20025;-69
2021/03/04 01:22:51;;;;;;;40.97;20.20;;;;;;;1.98;72.87;101682.31;5052445;28;20105;-67
2021/03/04 01:25:18;;;;;;;39.40;20.97;;;;;;;2.01;73.50;101677.53;5053081;28;20025;-70
2021/03/04 01:27:45;;;;;;;65.90;34.93;;;;;;;2.24;71.73;101671.94;5037419;28;20037;-68
2021/03/04 01:30:12;;;;;;;43.30;22.70;;;;;;;2.04;71.00;101637.91;5034146;28;20484;-66
2021/03/04 01:32:38;;;;;;;38.33;20.87;;;;;;;2.20;71.22;101663.13;5034902;28;20071;-69
2021/03/04 01:35:06;;;;;;;44.17;22.40;;;;;;;2.15;70.96;101669.47;5035414;28;20037;-70
2021/03/04 01:37:32;;;;;;;53.33;35.00;;;;;;;1.94;70.94;101641.31;5032491;28;20041;-72
2021/03/04 01:39:57;;;;;;;48.63;25.37;;;;;;;2.14;70.80;101654.94;5032448;28;20033;-68
2021/03/04 01:42:22;;;;;;;40.60;22.17;;;;;;;2.29;70.22;101647.75;5034820;28;20451;-67
2021/03/04 01:44:48;;;;;;;37.60;19.87;;;;;;;2.22;69.47;101607.22;5036313;28;20043;-67
2021/03/04 01:47:15;;;;;;;37.13;19.00;;;;;;;2.15;69.87;101648.19;5034410;28;20037;-71
2021/03/04 01:49:41;;;;;;;34.97;18.23;;;;;;;1.89;70.65;101646.72;5034458;28;20025;-66
2021/03/04 01:52:07;;;;;;;37.63;18.70;;;;;;;1.96;70.29;101635.44;5031526;28;20025;-66
2021/03/04 01:54:33;;;;;;;34.97;17.40;;;;;;;1.98;70.21;101645.03;5032791;28;20520;-66
2021/03/04 01:56:58;;;;;;;39.67;19.03;;;;;;;2.01;69.88;101634.22;5032018;28;20097;-71
2021/03/04 01:59:25;;;;;;;54.30;28.70;;;;;;;1.93;70.45;101643.69;5033359;28;20024;-68
2021/03/04 02:01:50;;;;;;;44.07;21.90;;;;;;;1.77;70.57;101610.88;5035693;28;20017;-69
2021/03/04 02:04:16;;;;;;;49.20;24.53;;;;;;;1.91;71.26;101652.88;5033205;28;20025;-71
2021/03/04 02:07:05;;;;;;;60.40;28.90;;;;;;;1.76;71.42;101621.81;5033985;28;20025;-65
2021/03/04 02:09:32;;;;;;;55.63;27.40;;;;;;;1.70;71.86;101632.31;5031387;28;20056;-67
2021/03/04 02:12:04;;;;;;;52.60;26.70;;;;;;;1.88;72.12;101640.75;5031897;28;20492;-71
2021/03/04 02:14:53;;;;;;;54.70;25.97;;;;;;;1.60;73.14;101645.84;5048417;28;20053;-66
2021/03/04 02:17:22;;;;;;;50.77;25.17;;;;;;;1.55;72.82;101636.03;5051918;28;20029;-70
2021/03/04 02:20:00;;;;;;;55.55;25.15;;;;;;;1.32;73.65;101637.34;5051806;28;20092;-67
2021/03/04 02:22:40;;;;;;;49.90;25.10;;;;;;;1.28;74.61;101648.88;5051719;28;20087;-67
2021/03/04 02:25:14;;;;;;;53.07;25.77;;;;;;;1.29;74.21;101650.66;5040104;28;20032;-67
2021/03/04 02:27:41;;;;;;;49.30;24.57;;;;;;;0.59;76.34;101611.88;5051806;28;20028;-70
2021/03/04 02:30:20;;;;;;;59.50;27.03;;;;;;;0.59;77.80;101655.06;5051271;28;20025;-69
2021/03/04 02:32:52;;;;;;;50.67;24.43;;;;;;;0.62;77.96;101655.34;5051343;28;20036;-66
2021/03/04 02:35:37;;;;;;;46.77;23.30;;;;;;;0.75;77.19;101647.28;5041067;28;20511;-69
2021/03/04 02:38:06;;;;;;;46.43;23.47;;;;;;;0.96;76.83;101641.66;5051563;28;20032;-69
2021/03/04 02:40:33;;;;;;;51.77;24.83;;;;;;;1.00;76.02;101630.13;5049932;28;20033;-69
2021/03/04 02:43:03;;;;;;;43.17;22.67;;;;;;;1.07;75.33;101635.06;5050804;28;20024;-69
2021/03/04 02:45:28;;;;;;;51.13;24.63;;;;;;;1.29;74.46;101634.50;5050753;28;20041;-67
2021/03/04 02:47:55;;;;;;;39.83;20.87;;;;;;;1.41;71.86;101627.13;5051686;28;20043;-67
2021/03/04 02:50:23;;;;;;;37.03;19.23;;;;;;;1.47;70.77;101632.78;5051585;28;20039;-70
2021/03/04 02:52:50;;;;;;;39.53;19.70;;;;;;;1.28;70.63;101625.06;5051264;28;20031;-70
2021/03/04 02:55:17;;;;;;;35.50;18.90;;;;;;;1.37;70.55;101648.84;5050935;28;20115;-67
2021/03/04 02:57:45;;;;;;;37.97;20.43;;;;;;;1.26;69.93;101581.69;5051150;28;20053;-71
2021/03/04 03:00:18;;;;;;;27.85;15.75;;;;;;;1.75;69.06;101638.72;5051282;28;20083;-67
2021/03/04 03:02:45;;;;;;;38.23;20.67;;;;;;;1.87;68.92;101641.50;5049383;28;20055;-68
2021/03/04 03:05:12;;;;;;;53.70;21.97;;;;;;;1.85;69.44;101620.09;5051229;28;20029;-72
2021/03/04 03:07:39;;;;;;;37.03;20.00;;;;;;;1.99;69.05;101628.97;5051263;28;20495;-67
2021/03/04 03:10:07;;;;;;;45.03;20.93;;;;;;;2.07;68.65;101630.56;5051472;28;20517;-70
2021/03/04 03:12:36;;;;;;;46.07;21.33;;;;;;;2.04;68.63;101609.03;5051392;28;20082;-70
2021/03/04 03:15:10;;;;;;;42.30;21.83;;;;;;;2.28;67.83;101627.25;5050768;28;20053;-72
2021/03/04 03:17:36;;;;;;;49.80;22.07;;;;;;;2.30;67.46;101626.63;5050866;28;20104;-70
2021/03/04 03:20:10;;;;;;;38.87;21.43;;;;;;;1.99;67.17;101597.53;5051292;28;20032;-67
2021/03/04 03:22:37;;;;;;;41.97;21.10;;;;;;;2.12;68.29;101630.06;5051165;28;20032;-69
2021/03/04 03:25:07;;;;;;;42.67;22.33;;;;;;;2.08;67.75;101629.81;5051343;28;20025;-67
2021/03/04 03:27:33;;;;;;;46.20;23.60;;;;;;;2.20;67.94;101634.22;5065140;28;20090;-67
2021/03/04 03:30:00;;;;;;;49.70;26.47;;;;;;;2.23;68.44;101611.53;5050978;28;20045;-66
2021/03/04 03:32:28;;;;;;;61.53;26.13;;;;;;;2.29;67.73;101599.34;5050718;28;20047;-70
2021/03/04 03:34:54;;;;;;;71.63;30.53;;;;;;;2.37;67.69;101623.88;5050793;28;20024;-71
2021/03/04 03:37:20;;;;;;;76.00;31.03;;;;;;;2.45;67.20;101626.19;5051112;28;20044;-68
2021/03/04 03:39:49;;;;;;;70.97;31.13;;;;;;;2.37;67.39;101613.69;5050554;28;20075;-68
2021/03/04 03:42:17;;;;;;;80.00;34.85;;;;;;;2.51;67.41;101611.44;5050717;28;20029;-67
2021/03/04 03:44:44;;;;;;;79.67;37.00;;;;;;;2.47;67.01;101617.00;5050918;28;20128;-68
2021/03/04 03:47:10;;;;;;;77.17;36.37;;;;;;;2.51;66.49;101608.91;5050863;28;20052;-72
2021/03/04 03:49:38;;;;;;;61.87;29.07;;;;;;;2.53;68.30;101612.47;5050336;28;20025;-68
2021/03/04 03:52:05;;;;;;;66.77;33.40;;;;;;;2.50;66.82;101607.09;5050799;28;20048;-66
2021/03/04 03:54:32;;;;;;;60.67;29.23;;;;;;;2.54;66.11;101614.25;5050638;28;20021;-68
2021/03/04 03:56:58;;;;;;;60.53;30.03;;;;;;;1.89;69.65;101614.50;5065405;28;20407;-71
2021/03/04 03:59:25;;;;;;;67.50;32.37;;;;;;;1.90;68.89;101605.25;5051057;28;20048;-68
2021/03/04 04:01:52;;;;;;;57.70;28.97;;;;;;;1.29;69.17;101545.47;5050520;28;20025;-67
2021/03/04 04:04:18;;;;;;;57.30;30.03;;;;;;;1.53;68.80;101599.34;5050917;28;20060;-70
2021/03/04 04:06:44;;;;;;;53.53;29.00;;;;;;;1.12;69.41;101556.63;5050802;28;20035;-71
2021/03/04 04:09:10;;;;;;;57.90;31.50;;;;;;;1.41;69.53;101606.78;5050573;28;20025;-67
2021/03/04 04:11:36;;;;;;;62.50;34.10;;;;;;;0.78;71.32;101594.16;5050386;28;20031;-67
2021/03/04 04:14:03;;;;;;;84.77;50.30;;;;;;;0.86;71.87;101595.78;5050279;28;20061;-68
2021/03/04 04:16:28;;;;;;;59.57;32.77;;;;;;;0.53;73.15;101596.91;5050786;28;20057;-70
2021/03/04 04:18:56;;;;;;;57.87;30.50;;;;;;;0.42;73.55;101593.34;5050252;28;20064;-67
2021/03/04 04:21:21;;;;;;;57.80;29.47;;;;;;;0.53;73.64;101594.38;5051567;28;20078;-71
2021/03/04 04:23:47;;;;;;;53.73;28.17;;;;;;;0.62;73.17;101597.81;5054002;28;20041;-70
2021/03/04 04:26:14;;;;;;;57.27;28.50;;;;;;;0.44;73.04;101585.91;5053982;28;20056;-71
2021/03/04 04:28:40;;;;;;;52.27;27.50;;;;;;;-0.21;76.08;101607.59;5054037;28;20067;-72
2021/03/04 04:31:05;;;;;;;159.00;67.70;;;;;;;-0.11;76.11;101576.38;5053722;28;20021;-67
2021/03/04 04:33:31;;;;;;;83.13;39.37;;;;;;;0.28;74.86;101601.31;5053800;28;20476;-69
2021/03/04 04:35:56;;;;;;;57.83;28.83;;;;;;;0.27;74.54;101596.97;5053989;28;20040;-68
2021/03/04 04:38:22;;;;;;;52.37;26.70;;;;;;;0.29;74.30;101590.41;5053872;28;20029;-70
2021/03/04 04:40:48;;;;;;;55.40;28.03;;;;;;;0.38;73.91;101605.63;5053666;28;20040;-70
2021/03/04 04:43:13;;;;;;;55.37;26.10;;;;;;;0.35;73.43;101585.91;5053589;28;20082;-70
2021/03/04 04:45:39;;;;;;;54.80;27.57;;;;;;;0.14;73.77;101547.53;5053797;28;20029;-72
2021/03/04 04:48:05;;;;;;;49.63;26.47;;;;;;;0.26;74.56;101587.56;5053437;28;20056;-72
2021/03/04 04:50:31;;;;;;;55.53;26.87;;;;;;;0.32;73.92;101583.06;5053216;28;20124;-71
2021/03/04 04:52:56;;;;;;;56.43;27.40;;;;;;;-0.08;74.04;101501.41;5053181;28;20075;-68
2021/03/04 04:55:22;;;;;;;58.47;29.17;;;;;;;0.35;74.61;101587.53;5071222;28;20064;-73
2021/03/04 04:57:48;;;;;;;58.67;27.63;;;;;;;0.47;74.15;101591.25;5071166;28;20047;-69
2021/03/04 05:00:14;;;;;;;58.53;29.70;;;;;;;0.52;74.12;101586.63;5070531;28;20060;-70
2021/03/04 05:02:40;;;;;;;56.40;29.17;;;;;;;0.74;73.56;101585.34;5070850;28;20044;-68
2021/03/04 05:05:06;;;;;;;58.73;29.43;;;;;;;0.82;72.80;101585.19;5070393;28;20041;-68
2021/03/04 05:07:32;;;;;;;56.90;27.47;;;;;;;0.41;72.86;101533.16;5070333;28;20024;-67
2021/03/04 05:09:57;;;;;;;98.53;47.10;;;;;;;0.59;73.13;101563.59;5070961;28;20557;-72
2021/03/04 05:12:23;;;;;;;72.57;39.57;;;;;;;0.70;73.56;101579.81;5068934;28;20044;-72
2021/03/04 05:14:49;;;;;;;68.87;33.90;;;;;;;0.70;73.46;101572.19;5070563;28;20070;-68
2021/03/04 05:17:15;;;;;;;54.40;29.57;;;;;;;0.62;74.36;101571.47;5068689;28;20040;-66
2021/03/04 05:19:40;;;;;;;57.40;29.47;;;;;;;0.43;74.69;101538.38;5069894;28;20043;-68
2021/03/04 05:22:06;;;;;;;59.10;32.77;;;;;;;0.69;74.17;101572.97;5065716;28;20055;-70
2021/03/04 05:24:31;;;;;;;58.10;31.10;;;;;;;0.73;74.35;101568.31;5069919;28;20454;-70
2021/03/04 05:26:57;;;;;;;59.27;30.07;;;;;;;0.70;74.93;101567.13;5056783;28;20044;-67
2021/03/04 05:29:22;;;;;;;217.27;91.50;;;;;;;0.43;75.22;101531.63;5052585;28;20025;-68
2021/03/04 05:31:47;;;;;;;82.03;37.87;;;;;;;0.63;75.08;101565.66;5052656;28;20029;-67
2021/03/04 05:34:13;;;;;;;74.60;34.87;;;;;;;0.80;74.18;101575.75;5052791;28;20056;-72
2021/03/04 05:36:38;;;;;;;70.03;33.50;;;;;;;0.48;74.82;101524.44;5051552;28;20029;-66
2021/03/04 05:39:04;;;;;;;73.43;37.47;;;;;;;0.74;74.65;101574.31;5048733;28;20047;-69
2021/03/04 05:41:31;;;;;;;85.07;43.17;;;;;;;0.71;74.74;101557.13;5052643;28;20021;-67
2021/03/04 05:43:58;;;;;;;84.67;38.33;;;;;;;0.89;74.81;101577.38;5051978;28;20032;-73
2021/03/04 05:46:25;;;;;;;80.90;38.30;;;;;;;0.89;74.75;101567.22;5050804;28;20381;-69
2021/03/04 05:48:51;;;;;;;149.13;54.33;;;;;;;0.86;74.87;101560.19;5051868;28;20029;-68
2021/03/04 05:51:26;;;;;;;104.40;46.50;;;;;;;0.77;74.61;101514.47;5052398;28;20411;-72
2021/03/04 05:53:57;;;;;;;86.77;39.20;;;;;;;1.23;74.39;101555.06;5048820;28;20028;-71
2021/03/04 05:56:23;;;;;;;78.47;37.80;;;;;;;1.32;74.40;101567.75;5048080;28;20058;-67
2021/03/04 05:58:50;;;;;;;71.13;34.93;;;;;;;1.14;74.77;101560.22;5052142;28;20522;-73
2021/03/04 06:01:16;;;;;;;76.73;34.97;;;;;;;1.21;75.41;101556.56;5051177;28;20042;-70
2021/03/04 06:03:43;;;;;;;80.20;35.17;;;;;;;1.45;75.60;101560.47;5051239;28;20025;-69
2021/03/04 06:06:08;;;;;;;71.03;33.80;;;;;;;1.28;75.67;101508.06;5051120;28;20028;-66
2021/03/04 06:08:35;;;;;;;77.43;35.13;;;;;;;1.67;76.76;101559.88;5050222;28;20141;-69
2021/03/04 06:11:04;;;;;;;83.87;35.40;;;;;;;1.49;77.00;101500.59;5051551;28;20047;-68
2021/03/04 06:13:30;;;;;;;;;;;;;;;2.00;78.28;101562.00;5051445;28;20431;-68
2021/03/04 06:15:56;;;;;;;98.77;32.17;;;;;;;2.00;79.24;101556.03;5051379;28;19916;-67
2021/03/04 06:18:22;;;;;;;75.87;34.27;;;;;;;2.03;79.60;101547.00;5051085;28;20461;-69
2021/03/04 06:20:48;;;;;;;86.70;33.47;;;;;;;1.86;79.54;101514.06;5050917;28;20036;-68
2021/03/04 06:23:13;;;;;;;92.20;35.47;;;;;;;2.02;80.49;101545.22;5048806;28;20029;-68
2021/03/04 06:25:39;;;;;;;94.60;34.87;;;;;;;1.71;80.43;101494.09;5051508;28;20040;-70
2021/03/04 06:28:06;;;;;;;92.17;36.80;;;;;;;1.76;81.71;101497.06;5050668;28;20048;-69
2021/03/04 06:30:40;;;;;;;91.40;39.20;;;;;;;2.15;81.81;101546.31;5033824;28;20029;-69
2021/03/04 06:33:08;;;;;;;103.77;35.53;;;;;;;1.93;81.94;101529.09;5042494;28;20078;-69
2021/03/04 06:35:41;;;;;;;96.70;36.90;;;;;;;2.01;82.32;101535.78;5040161;28;20076;-68
2021/03/04 06:38:14;;;;;;;106.20;36.40;;;;;;;1.95;82.23;101519.94;5043510;28;20041;-69
2021/03/04 06:40:40;;;;;;;108.33;36.20;;;;;;;2.14;82.48;101539.41;5040995;28;20538;-70
2021/03/04 06:43:05;;;;;;;94.80;39.17;;;;;;;2.18;82.49;101544.00;5051462;28;20103;-70
2021/03/04 06:45:33;;;;;;;86.83;33.60;;;;;;;2.22;82.83;101541.00;5050522;28;20492;-70
2021/03/04 06:48:23;;;;;;;90.43;36.17;;;;;;;2.08;83.06;101538.13;5051249;28;20028;-69
2021/03/04 06:50:56;;;;;;;80.13;34.97;;;;;;;2.03;83.97;101541.91;5051321;28;20025;-70
2021/03/04 06:53:24;;;;;;;100.53;37.47;;;;;;;2.17;84.18;101539.66;5050520;28;20037;-69
2021/03/04 06:55:51;;;;;;;93.50;37.80;;;;;;;2.24;83.73;101547.09;5050635;28;20029;-69
2021/03/04 06:58:30;;;;;;;94.77;38.87;;;;;;;2.33;84.23;101545.38;5051049;28;20017;-69
2021/03/04 07:01:16;;;;;;;102.23;44.67;;;;;;;2.43;83.88;101544.53;5049590;28;20090;-70
2021/03/04 07:03:51;;;;;;;94.00;40.07;;;;;;;2.38;83.59;101530.44;5050045;28;20025;-70
2021/03/04 07:06:19;;;;;;;91.93;39.77;;;;;;;2.48;83.56;101514.31;5050232;28;20503;-70
2021/03/04 07:08:47;;;;;;;83.03;36.43;;;;;;;2.53;82.96;101533.44;5051116;28;20025;-70
2021/03/04 07:11:17;;;;;;;97.33;39.27;;;;;;;2.49;83.45;101546.69;5053386;28;20029;-70
2021/03/04 07:13:43;;;;;;;90.60;39.37;;;;;;;2.41;83.97;101541.81;5051145;28;20076;-70
2021/03/04 07:16:12;;;;;;;75.77;37.20;;;;;;;2.39;84.52;101535.72;5050890;28;20071;-70
2021/03/04 07:18:43;;;;;;;78.53;37.83;;;;;;;2.42;84.92;101528.31;5050954;28;20036;-70
2021/03/04 07:21:12;;;;;;;81.03;35.13;;;;;;;1.96;85.64;101496.28;5050719;28;20116;-69
2021/03/04 07:23:40;;;;;;;85.77;41.47;;;;;;;2.16;87.26;101525.16;5050978;28;20075;-70
2021/03/04 07:26:06;;;;;;;81.37;37.80;;;;;;;2.20;87.69;101517.91;5050973;28;20074;-70
2021/03/04 07:28:34;;;;;;;85.13;39.27;;;;;;;2.23;87.41;101499.44;5051037;28;20029;-70
2021/03/04 07:31:01;;;;;;;83.50;39.83;;;;;;;2.42;87.31;101514.69;5050219;28;20702;-70
2021/03/04 07:33:28;;;;;;;81.57;39.87;;;;;;;2.55;87.28;101498.78;5050177;28;20048;-70
2021/03/04 07:35:54;;;;;;;79.53;38.87;;;;;;;2.62;86.96;101492.53;5050407;28;20493;-70
2021/03/04 07:38:27;;;;;;;80.00;38.67;;;;;;;2.63;87.75;101477.41;5050626;28;20021;-70
2021/03/04 07:41:19;;;;;;;81.70;38.03;;;;;;;2.46;88.81;101482.72;5050981;28;20020;-70
2021/03/04 07:43:48;;;;;;;91.20;41.03;;;;;;;2.47;89.31;101479.38;5036948;28;20040;-70
2021/03/04 07:46:28;;;;;;;81.50;39.42;;;;;;;2.46;89.45;101465.75;5047928;28;20041;-70
2021/03/04 07:48:54;;;;;;;84.27;38.93;;;;;;;2.75;89.40;101477.53;5048187;28;20041;-70
2021/03/04 07:51:20;;;;;;;79.03;37.20;;;;;;;2.89;88.60;101468.50;5048067;28;20152;-70
2021/03/04 07:53:46;;;;;;;66.57;33.30;;;;;;;3.03;87.76;101452.69;5047927;28;20094;-70
2021/03/04 07:56:41;;;;;;;75.57;37.47;;;;;;;3.05;88.38;101457.91;5048802;28;20098;-70
2021/03/04 07:59:16;;;;;;;77.07;37.60;;;;;;;3.13;87.80;101463.63;5012252;28;20577;-70
2021/03/04 08:01:42;;;;;;;67.10;34.60;;;;;;;3.11;87.95;101443.13;5012223;28;20041;-70
2021/03/04 08:04:24;;;;;;;70.13;35.50;;;;;;;3.34;87.56;101447.56;5012169;28;20034;-70
2021/03/04 08:06:50;;;;;;;89.20;40.53;;;;;;;3.66;86.92;101449.25;5011732;28;20177;-70
2021/03/04 08:09:33;;;;;;;68.00;34.10;;;;;;;3.94;85.58;101436.16;5012082;28;20041;-70
2021/03/04 08:12:13;;;;;;;59.67;33.20;;;;;;;4.28;84.68;101440.47;4995436;28;20117;-70
2021/03/04 08:14:40;;;;;;;60.35;31.63;;;;;;;4.42;84.07;101424.53;5012197;28;20081;-70
2021/03/04 08:17:06;;;;;;;60.73;31.97;;;;;;;4.68;82.92;101423.06;5011581;28;20049;-70
2021/03/04 08:19:33;;;;;;;61.17;34.60;;;;;;;4.69;82.63;101391.63;5007975;28;20025;-70
2021/03/04 08:22:04;;;;;;;72.07;42.63;;;;;;;5.09;82.75;101415.06;5028845;28;20041;-70
2021/03/04 08:24:31;;;;;;;57.95;32.17;;;;;;;5.36;81.87;101412.75;5031623;28;20584;-70
2021/03/04 08:26:57;;;;;;;52.83;30.85;;;;;;;5.32;81.15;101364.66;5031697;28;20063;-70
2021/03/04 08:29:24;;;;;;;54.38;29.42;;;;;;;5.69;80.62;101392.91;5031233;28;20548;-70
2021/03/04 08:31:52;;;;;;;54.08;29.85;;;;;;;5.74;81.14;101390.69;5030604;28;20029;-70
2021/03/04 08:34:18;;;;;;;54.45;31.45;;;;;;;5.76;82.17;101372.06;5031134;28;20040;-70
2021/03/04 08:36:47;;;;;;;64.05;31.67;;;;;;;6.01;80.91;101339.63;5053520;28;20029;-70
2021/03/04 08:39:13;;;;;;;55.00;28.20;;;;;;;6.54;77.99;101380.00;5053360;28;20025;-70
2021/03/04 08:41:39;;;;;;;52.05;28.15;;;;;;;6.70;77.14;101362.28;5046435;28;20792;-70
2021/03/04 08:44:12;;;;;;;51.30;29.80;;;;;;;6.81;76.15;101334.75;5053125;28;20025;-70
2021/03/04 08:46:42;;;;;;;40.22;24.00;;;;;;;7.23;72.69;101361.47;5053233;28;20017;-70
2021/03/04 08:49:08;;;;;;;40.65;23.42;;;;;;;7.56;71.32;101359.31;5044483;28;20105;-70
2021/03/04 08:51:43;;;;;;;31.35;18.02;;;;;;;7.83;68.88;101361.81;5054125;28;20068;-70
2021/03/04 08:54:22;;;;;;;32.55;18.63;;;;;;;8.07;67.04;101349.59;5053669;28;20029;-70
2021/03/04 08:56:52;;;;;;;28.23;15.65;;;;;;;8.19;63.87;101341.72;5053584;28;20039;-71
2021/03/04 08:59:25;;;;;;;30.92;17.30;;;;;;;8.37;63.92;101338.47;5053387;28;20399;-69
2021/03/04 09:01:51;;;;;;;31.77;18.60;;;;;;;8.51;62.43;101347.97;5050687;28;20037;-70
2021/03/04 09:04:20;;;;;;;33.63;19.35;;;;;;;8.69;62.75;101336.97;5053427;28;20021;-71
2021/03/04 09:06:46;;;;;;;34.00;19.58;;;;;;;8.86;61.47;101333.69;5053485;28;20025;-70
2021/03/04 09:09:28;;;;;;;29.83;18.25;;;;;;;9.00;61.51;101336.16;5053835;28;20057;-70
2021/03/04 09:11:54;;;;;;;32.50;18.67;;;;;;;9.08;60.91;101324.59;5053690;28;20033;-70
2021/03/04 09:14:30;;;;;;;32.65;18.65;;;;;;;8.89;61.49;101282.34;5053588;28;20060;-70
2021/03/04 09:16:56;;;;;;;33.15;19.73;;;;;;;9.20;60.46;101317.56;5053055;28;20499;-70
2021/03/04 09:19:32;;;;;;;34.08;20.75;;;;;;;9.28;60.13;101307.69;5053579;28;20024;-70
2021/03/04 09:22:02;;;;;;;34.25;20.40;;;;;;;9.35;59.55;101304.66;5053296;28;20051;-70
2021/03/04 09:24:27;;;;;;;;;;;;;;;9.44;60.75;101305.97;5053700;28;20497;-70
2021/03/04 09:26:54;;;;;;;32.35;19.40;;;;;;;9.55;59.49;101290.25;5053688;28;19916;-70
2021/03/04 09:29:19;;;;;;;36.05;20.95;;;;;;;9.74;59.72;101293.84;5052954;28;20504;-70
2021/03/04 09:31:52;;;;;;;35.33;20.48;;;;;;;9.93;58.84;101287.09;5084523;28;20045;-70
2021/03/04 09:34:19;;;;;;;33.88;19.25;;;;;;;10.08;58.28;101272.44;5052411;28;20036;-70
2021/03/04 09:36:45;;;;;;;31.77;18.30;;;;;;;10.09;57.94;101266.44;5053339;28;20435;-70
2021/03/04 09:39:10;;;;;;;30.92;18.60;;;;;;;10.27;56.30;101270.75;5053222;28;20032;-70
2021/03/04 09:41:36;;;;;;;31.92;18.38;;;;;;;10.36;57.30;101260.97;5053107;28;20032;-70
2021/03/04 09:44:05;;;;;;;30.90;18.08;;;;;;;10.27;56.90;101256.19;5052945;28;20477;-69
2021/03/04 09:46:41;;;;;;;27.52;15.82;;;;;;;10.26;55.13;101207.09;5053084;28;20494;-71
2021/03/04 09:49:10;;;;;;;29.45;16.50;;;;;;;10.48;55.08;101240.91;5053096;28;20040;-70
2021/03/04 09:51:38;;;;;;;26.55;16.90;;;;;;;10.61;54.74;101236.38;5052925;28;20052;-70
2021/03/04 09:54:04;;;;;;;30.27;17.35;;;;;;;10.74;54.43;101228.41;5052691;28;20502;-70
2021/03/04 09:56:31;;;;;;;28.35;16.15;;;;;;;10.73;54.46;101221.47;5053026;28;20373;-70
2021/03/04 09:58:56;;;;;;;25.60;16.75;;;;;;;10.72;53.84;101196.44;5052895;28;20400;-70
2021/03/04 10:01:34;;;;;;;29.63;16.20;;;;;;;11.12;52.58;101223.28;5049901;28;20032;-68
2021/03/04 10:04:02;;;;;;;26.00;15.05;;;;;;;11.32;52.63;101216.47;5051139;28;20033;-69
2021/03/04 10:06:32;;;;;;;26.73;16.00;;;;;;;11.35;52.93;101214.00;5051775;28;20020;-68
2021/03/04 10:08:57;;;;;;;24.63;15.88;;;;;;;11.39;51.46;101203.00;5052056;28;20384;-70
2021/03/04 10:11:25;;;;;;;28.02;15.85;;;;;;;11.66;50.37;101205.03;5051678;28;20096;-71
2021/03/04 10:13:51;;;;;;;23.02;14.98;;;;;;;11.59;51.04;101162.50;5051830;28;20167;-68
2021/03/04 10:16:17;;;;;;;24.48;15.27;;;;;;;12.00;50.92;101188.44;5051933;28;20489;-73
2021/03/04 10:18:47;;;;;;;20.58;13.75;;;;;;;12.36;48.93;101187.31;5049782;28;20025;-67
2021/03/04 10:21:14;;;;;;;21.67;13.82;;;;;;;12.20;47.39;101150.47;5049106;28;20420;-67
2021/03/04 10:23:40;;;;;;;18.92;12.73;;;;;;;12.42;48.56;101174.63;5051984;28;20035;-68
2021/03/04 10:26:06;;;;;;;21.35;13.15;;;;;;;12.50;47.96;101177.53;5052257;28;20024;-68
2021/03/04 10:28:32;;;;;;;19.30;13.23;;;;;;;12.53;47.70;101173.34;5051886;28;20104;-73
2021/03/04 10:30:57;;;;;;;20.20;12.82;;;;;;;12.72;48.41;101167.22;5051845;28;20112;-68
2021/03/04 10:33:23;;;;;;;23.60;13.18;;;;;;;12.73;46.82;101161.19;5050154;28;20028;-68
2021/03/04 10:35:48;;;;;;;22.55;12.73;;;;;;;12.84;46.90;101147.78;5048319;28;20025;-73
2021/03/04 10:38:14;;;;;;;19.27;12.93;;;;;;;12.94;45.49;101147.31;5033216;28;20037;-73
2021/03/04 10:40:40;;;;;;;16.58;10.27;;;;;;;12.87;44.75;101132.34;5035631;28;20021;-73
2021/03/04 10:43:05;;;;;;;17.33;11.38;;;;;;;12.94;44.23;101136.94;5030753;28;20111;-67
2021/03/04 10:45:31;;;;;;;20.30;12.05;;;;;;;13.14;43.06;101127.31;5037365;28;20060;-67
2021/03/04 10:47:56;;;;;;;20.95;12.57;;;;;;;13.26;44.71;101124.31;5042136;28;20036;-67
2021/03/04 10:50:24;;;;;;;16.02;10.77;;;;;;;13.41;44.15;101126.59;5032909;28;20041;-66
2021/03/04 10:52:50;;;;;;;17.00;11.73;;;;;;;13.56;43.19;101123.66;5034801;28;20017;-67
2021/03/04 10:55:24;;;;;;;16.75;12.05;;;;;;;13.58;43.52;101111.63;5032377;28;20075;-71
2021/03/04 10:57:50;;;;;;;20.17;11.95;;;;;;;13.72;43.71;101097.41;5035867;28;20036;-67
2021/03/04 11:00:15;;;;;;;16.90;11.73;;;;;;;13.78;43.81;101085.47;5051442;28;20025;-67
2021/03/04 11:02:41;;;;;;;24.58;13.15;;;;;;;13.93;44.46;101083.38;5044030;28;20563;-66
2021/03/04 11:05:09;;;;;;;16.98;11.60;;;;;;;13.93;43.63;101040.97;5050253;28;20074;-67
2021/03/04 11:07:34;;;;;;;17.45;11.82;;;;;;;14.25;42.60;101067.97;5050842;28;20104;-70
2021/03/04 11:10:00;;;;;;;15.88;10.80;;;;;;;14.25;41.80;101047.19;5036074;28;20128;-70
2021/03/04 11:12:26;;;;;;;18.75;12.57;;;;;;;13.97;42.82;101028.16;5047609;28;20025;-71
2021/03/04 11:14:51;;;;;;;19.13;12.23;;;;;;;14.37;42.90;101052.78;5050360;28;20661;-67
2021/03/04 11:17:17;;;;;;;22.42;12.55;;;;;;;14.18;43.86;101004.59;5050774;28;20025;-68
2021/03/04 11:19:42;;;;;;;18.50;12.52;;;;;;;14.39;42.86;101029.44;5043947;28;20113;-68